Time;durP1;ratioP1;P1;durP2;ratioP2;P2;SDS_P1;SDS_P2;PMS_P1;PMS_P2;Temp;Humidity;BMP_temperature;BMP_pressure;BME280_temperature;BME280_humidity;BME280_pressure;Samples;Min_cycle;Max_cycle;Signal;HPM_P1;HPM_P2
2021/09/05 00:00:11;;;;;;;;;;;21.50;71.40;;;;;;5065345;28;19967;-58
2021/09/05 00:02:37;;;;;;;;;;;21.50;70.80;;;;;;5058298;28;19919;-59
2021/09/05 00:05:04;;;;;;;;;;;21.50;70.80;;;;;;5083720;28;21726;-58
2021/09/05 00:07:30;;;;;;;;;;;21.50;70.90;;;;;;5066030;28;20364;-58
2021/09/05 00:09:55;;;;;;;;;;;21.50;70.80;;;;;;5068055;28;19927;-59
2021/09/05 00:12:22;;;;;;;;;;;21.50;70.70;;;;;;5063849;28;19970;-56
2021/09/05 00:14:47;;;;;;;;;;;21.50;70.80;;;;;;5063364;28;19916;-58
2021/09/05 00:17:13;;;;;;;;;;;21.50;70.80;;;;;;5068405;28;19912;-57
2021/09/05 00:19:38;;;;;;;;;;;21.50;70.80;;;;;;5068169;28;19913;-56
2021/09/05 00:22:04;;;;;;;;;;;21.50;70.80;;;;;;5067806;28;19916;-57
2021/09/05 00:24:29;;;;;;;;;;;21.50;70.70;;;;;;5068969;28;19924;-57
2021/09/05 00:26:55;;;;;;;;;;;21.50;71.30;;;;;;5068069;28;20310;-58
2021/09/05 00:29:20;;;;;;;;;;;21.50;70.60;;;;;;5067551;28;19919;-58
2021/09/05 00:31:46;;;;;;;;;;;21.50;70.70;;;;;;5069488;28;19913;-58
2021/09/05 00:34:11;;;;;;;;;;;21.50;70.70;;;;;;5078367;28;19916;-54
2021/09/05 00:36:37;;;;;;;;;;;21.50;70.50;;;;;;5075344;28;19920;-58
2021/09/05 00:39:04;;;;;;;;;;;21.50;70.50;;;;;;5055507;28;19919;-56
2021/09/05 00:41:30;;;;;;;;;;;21.50;70.60;;;;;;5076360;28;19925;-57
2021/09/05 00:44:05;;;;;;;;;;;21.50;70.50;;;;;;5069291;28;19923;-57
2021/09/05 00:46:31;;;;;;;;;;;21.50;70.60;;;;;;5072546;28;19978;-57
2021/09/05 00:48:56;;;;;;;;;;;21.50;70.60;;;;;;5074776;28;19916;-57
2021/09/05 00:51:22;;;;;;;;;;;21.50;70.60;;;;;;5071880;28;19928;-57
2021/09/05 00:53:48;;;;;;;;;;;21.50;70.50;;;;;;5055081;28;20007;-57
2021/09/05 00:56:13;;;;;;;;;;;21.50;70.50;;;;;;5070721;28;19966;-58
2021/09/05 00:58:41;;;;;;;;;;;21.50;70.60;;;;;;5071480;28;19916;-57
2021/09/05 01:01:06;;;;;;;;;;;21.50;70.50;;;;;;5034719;28;20289;-58
2021/09/05 01:03:32;;;;;;;;;;;21.50;70.50;;;;;;5056537;28;19912;-57
2021/09/05 01:05:57;;;;;;;;;;;21.50;70.50;;;;;;5072421;28;20394;-58
2021/09/05 01:08:23;;;;;;;;;;;21.50;70.50;;;;;;5038111;28;19998;-58
2021/09/05 01:10:48;;;;;;;;;;;21.50;70.50;;;;;;5076102;28;20545;-58
2021/09/05 01:13:13;;;;;;;;;;;21.50;70.50;;;;;;5073428;28;19917;-56
2021/09/05 01:15:39;;;;;;;;;;;21.50;70.40;;;;;;5073840;28;19916;-57
2021/09/05 01:18:04;;;;;;;;;;;21.50;70.50;;;;;;5076240;28;20179;-58
2021/09/05 01:20:30;;;;;;;;;;;21.50;70.40;;;;;;5067202;28;20301;-58
2021/09/05 01:22:55;;;;;;;;;;;21.50;70.40;;;;;;5071074;28;19912;-57
2021/09/05 01:25:21;;;;;;;;;;;21.50;70.40;;;;;;5075859;28;20210;-56
2021/09/05 01:27:46;;;;;;;;;;;21.50;70.40;;;;;;5076415;28;19916;-58
2021/09/05 01:30:12;;;;;;;;;;;21.50;71.00;;;;;;5048358;28;19912;-58
2021/09/05 01:32:37;;;;;;;;;;;21.50;70.40;;;;;;5064494;28;19919;-57
2021/09/05 01:35:03;;;;;;;;;;;21.50;70.40;;;;;;5069330;28;21875;-58
2021/09/05 01:37:29;;;;;;;;;;;21.50;70.40;;;;;;5069898;28;20406;-56
2021/09/05 01:39:55;;;;;;;;;;;21.50;70.30;;;;;;5069204;28;19920;-57
2021/09/05 01:42:20;;;;;;;;;;;21.50;70.40;;;;;;5073278;28;19955;-56
2021/09/05 01:44:46;;;;;;;;;;;21.50;70.40;;;;;;5067561;28;19912;-59
2021/09/05 01:47:11;;;;;;;;;;;21.50;70.30;;;;;;5070502;28;19922;-55
2021/09/05 01:49:37;;;;;;;;;;;21.50;70.30;;;;;;5061575;28;19927;-57
2021/09/05 01:52:02;;;;;;;;;;;21.50;70.40;;;;;;5070809;28;20558;-57
2021/09/05 01:54:28;;;;;;;;;;;21.50;70.40;;;;;;5075333;28;19931;-57
2021/09/05 01:56:53;;;;;;;;;;;21.50;70.30;;;;;;5073533;28;19916;-56
2021/09/05 01:59:19;;;;;;;;;;;21.50;70.40;;;;;;5061940;28;19932;-58
2021/09/05 02:01:44;;;;;;;;;;;21.50;70.40;;;;;;5070811;28;19974;-58
2021/09/05 02:04:09;;;;;;;;;;;21.50;70.40;;;;;;5069118;28;20384;-58
2021/09/05 02:06:35;;;;;;;;;;;21.50;70.30;;;;;;5056083;28;20091;-58
2021/09/05 02:09:00;;;;;;;;;;;21.50;70.20;;;;;;5082244;28;19924;-57
2021/09/05 02:11:26;;;;;;;;;;;21.50;70.20;;;;;;5068831;28;19920;-56
2021/09/05 02:13:51;;;;;;;;;;;21.50;70.20;;;;;;5069479;28;19920;-56
2021/09/05 02:16:17;;;;;;;;;;;21.50;70.30;;;;;;5081439;28;20377;-58
2021/09/05 02:18:43;;;;;;;;;;;21.40;70.30;;;;;;5062934;28;19916;-59
2021/09/05 02:21:08;;;;;;;;;;;21.50;70.30;;;;;;5027616;28;19919;-56
2021/09/05 02:23:34;;;;;;;;;;;21.50;70.30;;;;;;5072702;28;20001;-57
2021/09/05 02:25:59;;;;;;;;;;;21.50;70.30;;;;;;5075112;28;19955;-57
2021/09/05 02:28:25;;;;;;;;;;;21.50;70.20;;;;;;5065705;28;19921;-58
2021/09/05 02:30:50;;;;;;;;;;;21.50;70.30;;;;;;5066102;28;20449;-58
2021/09/05 02:33:15;;;;;;;;;;;21.50;70.20;;;;;;5061969;28;19966;-58
2021/09/05 02:35:41;;;;;;;;;;;21.50;70.30;;;;;;5054168;28;19931;-57
2021/09/05 02:38:06;;;;;;;;;;;21.50;70.30;;;;;;5063824;28;19998;-58
2021/09/05 02:40:32;;;;;;;;;;;21.50;70.30;;;;;;5064709;28;20327;-57
2021/09/05 02:42:57;;;;;;;;;;;21.50;70.30;;;;;;5070537;28;19919;-58
2021/09/05 02:45:23;;;;;;;;;;;21.50;70.30;;;;;;5072546;28;20062;-58
2021/09/05 02:47:48;;;;;;;;;;;21.40;70.20;;;;;;5072749;28;19921;-58
2021/09/05 02:50:14;;;;;;;;;;;21.50;70.20;;;;;;5066777;28;19923;-58
2021/09/05 02:52:39;;;;;;;;;;;21.50;70.30;;;;;;5073101;28;19912;-58
2021/09/05 02:55:05;;;;;;;;;;;21.50;70.30;;;;;;5074522;28;19920;-58
2021/09/05 02:57:30;;;;;;;;;;;21.50;70.20;;;;;;5074205;28;19920;-59
2021/09/05 02:59:56;;;;;;;;;;;21.50;70.20;;;;;;5069507;28;19987;-57
2021/09/05 03:02:21;;;;;;;;;;;21.40;70.10;;;;;;5070767;28;19923;-58
2021/09/05 03:04:47;;;;;;;;;;;21.40;70.10;;;;;;5078123;28;19989;-57
2021/09/05 03:07:12;;;;;;;;;;;21.50;70.20;;;;;;5077313;28;19916;-59
2021/09/05 03:09:39;;;;;;;;;;;21.40;70.20;;;;;;5076532;28;20336;-59
2021/09/05 03:12:05;;;;;;;;;;;21.50;70.20;;;;;;5076466;28;19916;-58
2021/09/05 03:14:30;;;;;;;;;;;21.40;70.10;;;;;;5078237;28;22597;-58
2021/09/05 03:16:55;;;;;;;;;;;21.40;70.10;;;;;;5064784;28;20405;-58
2021/09/05 03:19:21;;;;;;;;;;;21.50;70.10;;;;;;5077959;28;19912;-59
2021/09/05 03:21:46;;;;;;;;;;;21.40;70.10;;;;;;5074250;28;19923;-59
2021/09/05 03:24:12;;;;;;;;;;;21.40;70.20;;;;;;5069568;28;19917;-59
2021/09/05 03:26:37;;;;;;;;;;;21.40;70.10;;;;;;5082156;28;20513;-57
2021/09/05 03:29:03;;;;;;;;;;;21.50;70.20;;;;;;5070364;28;19928;-57
2021/09/05 03:31:28;;;;;;;;;;;21.40;70.10;;;;;;5069019;28;19916;-57
2021/09/05 03:33:54;;;;;;;;;;;21.40;70.10;;;;;;5082688;28;19913;-58
2021/09/05 03:36:19;;;;;;;;;;;21.40;70.10;;;;;;5065090;28;20338;-58
2021/09/05 03:38:44;;;;;;;;;;;21.40;70.00;;;;;;5076598;28;19931;-55
2021/09/05 03:41:10;;;;;;;;;;;21.40;70.00;;;;;;5071428;28;19912;-56
2021/09/05 03:43:35;;;;;;;;;;;21.40;70.10;;;;;;5080214;28;20522;-58
2021/09/05 03:46:01;;;;;;;;;;;21.40;70.10;;;;;;5073074;28;19928;-57
2021/09/05 03:48:26;;;;;;;;;;;21.40;70.00;;;;;;5079490;28;19918;-56
2021/09/05 03:50:52;;;;;;;;;;;21.40;70.10;;;;;;5075534;28;19916;-59
2021/09/05 03:53:17;;;;;;;;;;;21.40;70.10;;;;;;5072310;28;20297;-58
2021/09/05 03:55:43;;;;;;;;;;;21.40;70.00;;;;;;5084326;28;19978;-57
2021/09/05 03:58:08;;;;;;;;;;;21.40;70.00;;;;;;5085441;28;19912;-58
2021/09/05 04:00:34;;;;;;;;;;;21.40;70.10;;;;;;5056074;28;19920;-59
2021/09/05 04:02:59;;;;;;;;;;;21.40;70.00;;;;;;5060190;28;19934;-56
2021/09/05 04:05:25;;;;;;;;;;;21.40;70.00;;;;;;5071798;28;19924;-58
2021/09/05 04:10:28;;;;;;;;;;;21.40;70.00;;;;;;5089058;22;19935;-61
2021/09/05 04:12:53;;;;;;;;;;;21.40;70.10;;;;;;5064724;28;19920;-61
2021/09/05 04:15:19;;;;;;;;;;;21.40;70.10;;;;;;5082769;28;19924;-59
2021/09/05 04:17:44;;;;;;;;;;;21.40;70.00;;;;;;5083122;28;19912;-60
2021/09/05 04:20:10;;;;;;;;;;;21.40;70.00;;;;;;5085714;28;19985;-61
2021/09/05 04:22:35;;;;;;;;;;;21.40;70.00;;;;;;5081701;28;20447;-61
2021/09/05 04:25:01;;;;;;;;;;;21.40;70.00;;;;;;5081751;28;19972;-61
2021/09/05 04:27:26;;;;;;;;;;;21.40;70.00;;;;;;5082453;28;19917;-60
2021/09/05 04:29:52;;;;;;;;;;;21.40;70.00;;;;;;5081380;28;19917;-61
2021/09/05 04:32:20;;;;;;;;;;;21.40;70.10;;;;;;5082635;28;19912;-60
2021/09/05 04:34:45;;;;;;;;;;;21.40;70.00;;;;;;5082249;28;19927;-61
2021/09/05 04:37:11;;;;;;;;;;;21.40;69.90;;;;;;5080896;28;20288;-60
2021/09/05 04:39:36;;;;;;;;;;;21.40;70.10;;;;;;5076653;28;21415;-60
2021/09/05 04:42:02;;;;;;;;;;;21.40;70.00;;;;;;5082162;28;19922;-62
2021/09/05 04:44:27;;;;;;;;;;;21.40;70.10;;;;;;5079649;28;20631;-61
2021/09/05 04:46:53;;;;;;;;;;;21.40;70.00;;;;;;5081868;28;19928;-60
2021/09/05 04:49:18;;;;;;;;;;;21.40;70.00;;;;;;5080993;28;19922;-61
2021/09/05 04:51:44;;;;;;;;;;;21.40;70.00;;;;;;5081463;28;19913;-61
2021/09/05 04:54:09;;;;;;;;;;;21.40;69.90;;;;;;5082183;28;19916;-61
2021/09/05 04:56:34;;;;;;;;;;;21.40;70.00;;;;;;5081067;28;19932;-62
2021/09/05 04:59:00;;;;;;;;;;;21.40;70.00;;;;;;5079427;28;19919;-61
2021/09/05 05:01:25;;;;;;;;;;;21.40;70.00;;;;;;5080789;28;20368;-60
2021/09/05 05:03:51;;;;;;;;;;;21.40;70.10;;;;;;5080981;28;19912;-61
2021/09/05 05:06:16;;;;;;;;;;;21.40;70.10;;;;;;5081026;28;19938;-60
2021/09/05 05:08:42;;;;;;;;;;;21.40;69.90;;;;;;5081002;28;20593;-59
2021/09/05 05:11:11;;;;;;;;;;;21.40;70.00;;;;;;5081440;28;19920;-60
2021/09/05 05:13:36;;;;;;;;;;;21.40;70.00;;;;;;5080770;28;20368;-59
2021/09/05 05:16:02;;;;;;;;;;;21.40;70.10;;;;;;5081336;28;19931;-60
2021/09/05 05:18:27;;;;;;;;;;;21.40;70.00;;;;;;5082070;28;20389;-60
2021/09/05 05:20:53;;;;;;;;;;;21.40;70.00;;;;;;5081861;28;19920;-61
2021/09/05 05:23:18;;;;;;;;;;;21.40;69.90;;;;;;5081261;28;19961;-62
2021/09/05 05:25:44;;;;;;;;;;;21.40;70.00;;;;;;5080243;28;20395;-62
2021/09/05 05:28:09;;;;;;;;;;;21.40;70.00;;;;;;5079397;28;20011;-62
2021/09/05 05:30:35;;;;;;;;;;;21.40;70.00;;;;;;5080254;28;19916;-61
2021/09/05 05:33:00;;;;;;;;;;;21.40;70.00;;;;;;5065468;28;19919;-62
2021/09/05 05:35:26;;;;;;;;;;;21.30;70.00;;;;;;5069586;28;20073;-62
2021/09/05 05:37:51;;;;;;;;;;;21.30;70.00;;;;;;5077713;28;20438;-61
2021/09/05 05:40:22;;;;;;;;;;;21.30;70.00;;;;;;5080513;28;19916;-61
2021/09/05 05:42:48;;;;;;;;;;;21.30;70.00;;;;;;5079777;28;19912;-61
2021/09/05 05:45:16;;;;;;;;;;;21.30;70.00;;;;;;5079223;28;20304;-62
2021/09/05 05:47:42;;;;;;;;;;;21.40;70.10;;;;;;5075272;28;19926;-61
2021/09/05 05:50:07;;;;;;;;;;;21.30;70.00;;;;;;5078826;28;19912;-62
2021/09/05 05:52:33;;;;;;;;;;;21.30;69.90;;;;;;5080031;28;20190;-61
2021/09/05 05:54:58;;;;;;;;;;;21.40;70.00;;;;;;5080602;28;19916;-62
2021/09/05 05:57:24;;;;;;;;;;;21.30;69.90;;;;;;5080589;28;20381;-60
2021/09/05 05:59:50;;;;;;;;;;;21.30;69.90;;;;;;5079667;28;20000;-62
2021/09/05 06:02:15;;;;;;;;;;;21.30;69.90;;;;;;5080355;28;20408;-62
2021/09/05 06:04:41;;;;;;;;;;;21.30;69.90;;;;;;5079905;28;19913;-62
2021/09/05 06:07:06;;;;;;;;;;;21.30;69.90;;;;;;5079894;28;19912;-63
2021/09/05 06:09:32;;;;;;;;;;;21.30;69.90;;;;;;5079635;28;19923;-61
2021/09/05 06:11:57;;;;;;;;;;;21.30;70.00;;;;;;5079704;28;20280;-63
2021/09/05 06:14:23;;;;;;;;;;;21.30;69.90;;;;;;5079855;28;20135;-60
2021/09/05 06:16:48;;;;;;;;;;;21.30;69.90;;;;;;5078847;28;19916;-61
2021/09/05 06:19:13;;;;;;;;;;;21.30;69.90;;;;;;5077931;28;19961;-60
2021/09/05 06:21:39;;;;;;;;;;;21.30;69.80;;;;;;5079728;28;19919;-61
2021/09/05 06:24:04;;;;;;;;;;;21.30;70.00;;;;;;5079414;28;20273;-62
2021/09/05 06:26:30;;;;;;;;;;;21.30;69.90;;;;;;5077995;28;19912;-60
2021/09/05 06:28:56;;;;;;;;;;;21.30;70.00;;;;;;5078562;28;19912;-61
2021/09/05 06:31:21;;;;;;;;;;;21.30;70.00;;;;;;5080007;28;19913;-61
2021/09/05 06:33:47;;;;;;;;;;;21.30;70.00;;;;;;5079719;28;19912;-61
2021/09/05 06:36:12;;;;;;;;;;;21.30;70.00;;;;;;5079145;28;19916;-60
2021/09/05 06:38:37;;;;;;;;;;;21.30;70.10;;;;;;5066340;28;20297;-61
2021/09/05 06:41:03;;;;;;;;;;;21.30;70.10;;;;;;5078475;28;19969;-60
2021/09/05 06:43:28;;;;;;;;;;;21.30;70.20;;;;;;5078305;28;19926;-62
2021/09/05 06:45:54;;;;;;;;;;;21.30;70.40;;;;;;5079220;28;19912;-60
2021/09/05 06:48:19;;;;;;;;;;;21.30;70.80;;;;;;5079809;28;20331;-60
2021/09/05 06:50:46;;;;;;;;;;;21.30;70.90;;;;;;5079630;28;19919;-60
2021/09/05 06:53:12;;;;;;;;;;;21.30;71.20;;;;;;5078783;28;19919;-60
2021/09/05 06:55:38;;;;;;;;;;;21.30;71.20;;;;;;5079803;28;20292;-61
2021/09/05 06:58:03;;;;;;;;;;;21.30;71.10;;;;;;5079398;28;20609;-60
2021/09/05 07:00:29;;;;;;;;;;;21.30;71.10;;;;;;5079381;28;19920;-61
2021/09/05 07:02:54;;;;;;;;;;;21.30;71.10;;;;;;5079678;28;19931;-60
2021/09/05 07:05:20;;;;;;;;;;;21.30;70.90;;;;;;5078280;28;19973;-61
2021/09/05 07:07:45;;;;;;;;;;;21.30;70.90;;;;;;5079184;28;19934;-60
2021/09/05 07:10:11;;;;;;;;;;;21.30;70.90;;;;;;5079090;28;20399;-61
2021/09/05 07:12:36;;;;;;;;;;;21.30;70.80;;;;;;5078584;28;19923;-61
2021/09/05 07:15:01;;;;;;;;;;;21.30;70.80;;;;;;5079369;28;19920;-61
2021/09/05 07:17:27;;;;;;;;;;;21.30;70.70;;;;;;5078307;28;19923;-62
2021/09/05 07:19:54;;;;;;;;;;;21.30;70.70;;;;;;5079209;28;20355;-60
2021/09/05 07:22:19;;;;;;;;;;;21.30;70.60;;;;;;5078871;28;20124;-61
2021/09/05 07:24:45;;;;;;;;;;;21.30;70.60;;;;;;5078950;28;19921;-61
2021/09/05 07:27:10;;;;;;;;;;;21.30;70.50;;;;;;5078530;28;19919;-60
2021/09/05 07:29:36;;;;;;;;;;;21.30;70.50;;;;;;5078485;28;20464;-61
2021/09/05 07:32:01;;;;;;;;;;;21.30;70.50;;;;;;5079570;28;19916;-61
2021/09/05 07:34:27;;;;;;;;;;;21.30;71.10;;;;;;5079713;28;20020;-62
2021/09/05 07:36:52;;;;;;;;;;;21.30;71.30;;;;;;5079854;28;19916;-62
2021/09/05 07:39:18;;;;;;;;;;;21.30;71.40;;;;;;5053005;28;19967;-61
2021/09/05 07:41:43;;;;;;;;;;;21.30;71.40;;;;;;5080320;28;20280;-62
2021/09/05 07:44:09;;;;;;;;;;;21.30;71.30;;;;;;5080326;28;19973;-61
2021/09/05 07:46:34;;;;;;;;;;;21.30;71.30;;;;;;5080365;28;19920;-61
2021/09/05 07:49:00;;;;;;;;;;;21.30;71.40;;;;;;5081093;28;19913;-62
2021/09/05 07:51:25;;;;;;;;;;;21.30;71.40;;;;;;5072645;28;19924;-62
2021/09/05 07:53:51;;;;;;;;;;;21.30;71.20;;;;;;5076314;28;19924;-61
2021/09/05 07:56:17;;;;;;;;;;;21.30;71.20;;;;;;5056374;28;20309;-61
2021/09/05 07:58:42;;;;;;;;;;;21.30;71.10;;;;;;5065620;28;19927;-61
2021/09/05 08:01:08;;;;;;;;;;;21.20;71.30;;;;;;5060183;28;20299;-61
2021/09/05 08:03:37;;;;;;;;;;;21.30;71.40;;;;;;5073042;28;19923;-61
2021/09/05 08:06:03;;;;;;;;;;;21.20;71.20;;;;;;5066709;28;20377;-61
2021/09/05 08:08:28;;;;;;;;;;;21.20;71.00;;;;;;5055593;28;19917;-61
2021/09/05 08:10:54;;;;;;;;;;;21.30;70.90;;;;;;5063810;28;19935;-61
2021/09/05 08:13:19;;;;;;;;;;;21.20;70.80;;;;;;5082597;28;19916;-61
2021/09/05 08:15:45;;;;;;;;;;;21.20;70.70;;;;;;5082031;28;19917;-60
2021/09/05 08:18:10;;;;;;;;;;;21.20;70.60;;;;;;5081787;28;19912;-60
2021/09/05 08:20:35;;;;;;;;;;;21.20;70.50;;;;;;5082814;28;19912;-60
2021/09/05 08:23:01;;;;;;;;;;;21.20;70.40;;;;;;5083094;28;19961;-60
2021/09/05 08:25:26;;;;;;;;;;;21.20;70.40;;;;;;5082601;28;19923;-60
2021/09/05 08:27:52;;;;;;;;;;;21.30;70.40;;;;;;5083038;28;20381;-60
2021/09/05 08:30:17;;;;;;;;;;;21.20;70.30;;;;;;5082366;28;20324;-61
2021/09/05 08:32:43;;;;;;;;;;;21.20;70.30;;;;;;5083103;28;19913;-62
2021/09/05 08:35:08;;;;;;;;;;;21.20;70.30;;;;;;5082771;28;19920;-62
2021/09/05 08:37:34;;;;;;;;;;;21.20;70.30;;;;;;5083886;28;19916;-62
2021/09/05 08:39:59;;;;;;;;;;;21.20;70.20;;;;;;5082161;28;19962;-60
2021/09/05 08:42:26;;;;;;;;;;;21.30;70.20;;;;;;5074257;28;19912;-62
2021/09/05 08:44:51;;;;;;;;;;;21.20;70.10;;;;;;5081541;28;19916;-61
2021/09/05 08:47:17;;;;;;;;;;;21.20;70.20;;;;;;5083534;28;20553;-61
2021/09/05 08:49:42;;;;;;;;;;;21.20;70.20;;;;;;5081799;28;19919;-61
2021/09/05 08:52:08;;;;;;;;;;;21.20;70.20;;;;;;5081227;28;19912;-61
2021/09/05 08:54:33;;;;;;;;;;;21.20;70.20;;;;;;5064828;28;19943;-61
2021/09/05 08:57:00;;;;;;;;;;;21.30;70.20;;;;;;5080074;28;19985;-61
2021/09/05 08:59:25;;;;;;;;;;;21.20;70.20;;;;;;5082723;28;20030;-62
2021/09/05 09:01:54;;;;;;;;;;;21.20;70.20;;;;;;5082642;28;19912;-61
2021/09/05 09:04:20;;;;;;;;;;;21.20;70.20;;;;;;5082432;28;19920;-62
2021/09/05 09:06:45;;;;;;;;;;;21.20;70.10;;;;;;5083127;28;20293;-61
2021/09/05 09:09:11;;;;;;;;;;;21.20;70.10;;;;;;5082461;28;19916;-61
2021/09/05 09:11:46;;;;;;;;;;;21.20;70.10;;;;;;5081010;28;19924;-60
2021/09/05 09:14:12;;;;;;;;;;;21.20;70.10;;;;;;5081122;28;19987;-61
2021/09/05 09:16:37;;;;;;;;;;;21.20;70.10;;;;;;5081354;28;19922;-62
2021/09/05 09:19:03;;;;;;;;;;;21.20;70.20;;;;;;5079967;28;20372;-61
2021/09/05 09:21:28;;;;;;;;;;;21.20;70.10;;;;;;5079943;28;19999;-62
2021/09/05 09:23:54;;;;;;;;;;;21.20;70.20;;;;;;5079254;28;20011;-62
2021/09/05 09:26:19;;;;;;;;;;;21.20;70.20;;;;;;5081063;28;19916;-61
2021/09/05 09:28:45;;;;;;;;;;;21.20;70.10;;;;;;5081851;28;20399;-60
2021/09/05 09:31:20;;;;;;;;;;;21.20;70.20;;;;;;5080384;28;20619;-60
2021/09/05 09:33:47;;;;;;;;;;;21.20;70.20;;;;;;5081354;28;19912;-60
2021/09/05 09:36:13;;;;;;;;;;;21.20;70.20;;;;;;5069727;28;19916;-62
2021/09/05 09:38:41;;;;;;;;;;;21.20;70.20;;;;;;5080599;28;19912;-62
2021/09/05 09:41:06;;;;;;;;;;;21.20;70.20;;;;;;5080066;28;19916;-61
2021/09/05 09:43:32;;;;;;;;;;;21.20;70.20;;;;;;5080539;28;19919;-62
2021/09/05 09:46:10;;;;;;;;;;;21.20;70.20;;;;;;5080627;28;19919;-61
2021/09/05 09:48:37;;;;;;;;;;;21.20;70.20;;;;;;5080454;28;20541;-62
2021/09/05 09:51:03;;;;;;;;;;;21.20;70.20;;;;;;5079287;28;19916;-61
2021/09/05 09:53:29;;;;;;;;;;;21.20;70.20;;;;;;5078577;28;19950;-60
2021/09/05 09:55:56;;;;;;;;;;;21.20;70.10;;;;;;5081368;28;19924;-62
2021/09/05 09:58:21;;;;;;;;;;;21.20;70.10;;;;;;5080665;28;19999;-62
2021/09/05 10:00:46;;;;;;;;;;;21.20;70.10;;;;;;5081663;28;19912;-62
2021/09/05 10:03:12;;;;;;;;;;;21.20;70.20;;;;;;5078930;28;20518;-60
2021/09/05 10:05:39;;;;;;;;;;;21.20;70.10;;;;;;5078459;28;19935;-62
2021/09/05 10:08:04;;;;;;;;;;;21.20;70.10;;;;;;5080408;28;19916;-60
2021/09/05 10:10:29;;;;;;;;;;;21.20;70.10;;;;;;5064232;22;19977;-56
2021/09/05 10:12:55;;;;;;;;;;;21.20;70.20;;;;;;5054583;28;20316;-58
2021/09/05 10:15:20;;;;;;;;;;;21.20;70.10;;;;;;5054710;28;19925;-54
2021/09/05 10:17:46;;;;;;;;;;;21.20;70.10;;;;;;5059750;28;19927;-58
2021/09/05 10:20:11;;;;;;;;;;;21.20;70.20;;;;;;5049648;28;20695;-54
2021/09/05 10:22:37;;;;;;;;;;;21.20;70.10;;;;;;5044613;28;19920;-55
2021/09/05 10:25:03;;;;;;;;;;;21.10;70.10;;;;;;5060222;28;19958;-55
2021/09/05 10:27:29;;;;;;;;;;;21.20;70.20;;;;;;5061422;28;20659;-54
2021/09/05 10:30:07;;;;;;;;;;;21.20;70.20;;;;;;5055073;28;19951;-56
2021/09/05 10:32:42;;;;;;;;;;;21.20;70.20;;;;;;5061427;28;19920;-60
2021/09/05 10:35:25;;;;;;;;;;;21.20;70.10;;;;;;5058790;28;20848;-51
2021/09/05 10:38:09;;;;;;;;;;;21.10;70.10;;;;;;5061277;28;19912;-56
2021/09/05 10:40:40;;;;;;;;;;;21.10;70.10;;;;;;5047087;28;19912;-52
2021/09/05 10:43:05;;;;;;;;;;;21.20;70.20;;;;;;5045917;28;19913;-53
2021/09/05 10:45:31;;;;;;;;;;;21.10;70.10;;;;;;5043211;28;19919;-60
2021/09/05 10:47:57;;;;;;;;;;;21.10;70.10;;;;;;5061496;28;19951;-54
2021/09/05 10:50:32;;;;;;;;;;;21.10;70.10;;;;;;5034220;28;19920;-52
2021/09/05 10:53:12;;;;;;;;;;;21.10;70.10;;;;;;5061611;28;19916;-55
2021/09/05 10:55:56;;;;;;;;;;;21.10;70.10;;;;;;5055323;28;19917;-57
2021/09/05 10:58:23;;;;;;;;;;;21.10;70.10;;;;;;5037028;28;19916;-56
2021/09/05 11:01:00;;;;;;;;;;;21.10;70.10;;;;;;5049122;28;20383;-58
2021/09/05 11:03:26;;;;;;;;;;;21.10;70.10;;;;;;5051470;28;19940;-57
2021/09/05 11:06:06;;;;;;;;;;;21.10;70.20;;;;;;5044342;28;20267;-59
2021/09/05 11:08:32;;;;;;;;;;;21.10;70.20;;;;;;5064492;28;19939;-57
2021/09/05 11:10:57;;;;;;;;;;;21.10;70.30;;;;;;5053942;28;20591;-57
2021/09/05 11:13:41;;;;;;;;;;;21.10;70.30;;;;;;5060216;28;19920;-58
2021/09/05 11:16:13;;;;;;;;;;;21.10;70.30;;;;;;5060605;28;19963;-57
2021/09/05 11:18:38;;;;;;;;;;;21.10;70.30;;;;;;5060973;28;19966;-58
2021/09/05 11:21:04;;;;;;;;;;;21.10;70.40;;;;;;5061503;28;20552;-57
2021/09/05 11:23:34;;;;;;;;;;;21.10;70.30;;;;;;5047526;28;19923;-57
2021/09/05 11:26:06;;;;;;;;;;;21.10;70.20;;;;;;5065283;28;19966;-57
2021/09/05 11:28:32;;;;;;;;;;;21.10;70.30;;;;;;5064472;28;19935;-57
2021/09/05 11:30:58;;;;;;;;;;;21.10;70.30;;;;;;5064038;28;20487;-56
2021/09/05 11:33:26;;;;;;;;;;;21.10;70.30;;;;;;5064836;28;19917;-57
2021/09/05 11:35:52;;;;;;;;;;;21.10;70.40;;;;;;5060767;28;20448;-57
2021/09/05 11:38:17;;;;;;;;;;;21.10;70.30;;;;;;5053858;28;19959;-57
2021/09/05 11:40:51;;;;;;;;;;;21.10;70.30;;;;;;5065017;28;20346;-57
2021/09/05 11:43:36;;;;;;;;;;;21.10;70.40;;;;;;5064734;28;19966;-57
2021/09/05 11:46:07;;;;;;;;;;;21.10;70.40;;;;;;5058707;28;19951;-58
2021/09/05 11:48:33;;;;;;;;;;;21.10;70.40;;;;;;5064595;28;20565;-57
2021/09/05 11:51:02;;;;;;;;;;;21.10;70.40;;;;;;5064752;28;19912;-57
2021/09/05 11:53:27;;;;;;;;;;;21.10;70.50;;;;;;5054032;28;19912;-59
2021/09/05 11:55:53;;;;;;;;;;;21.10;70.50;;;;;;5064000;28;19931;-58
2021/09/05 11:58:18;;;;;;;;;;;21.10;70.60;;;;;;5062943;28;19995;-57
2021/09/05 12:00:44;;;;;;;;;;;21.10;70.60;;;;;;5064713;28;19919;-56
2021/09/05 12:03:12;;;;;;;;;;;21.10;70.60;;;;;;5064815;28;19917;-57
2021/09/05 12:05:37;;;;;;;;;;;21.10;70.60;;;;;;5052346;28;19942;-57
2021/09/05 12:08:03;;;;;;;;;;;21.10;70.60;;;;;;5062195;28;20331;-57
2021/09/05 12:10:28;;;;;;;;;;;21.10;70.70;;;;;;5041919;28;19929;-58
2021/09/05 12:13:06;;;;;;;;;;;21.10;70.70;;;;;;5039173;28;19913;-55
2021/09/05 12:15:32;;;;;;;;;;;21.10;70.60;;;;;;5067105;28;19920;-57
2021/09/05 12:17:58;;;;;;;;;;;21.10;70.70;;;;;;5039155;28;19912;-58
2021/09/05 12:20:23;;;;;;;;;;;21.10;70.60;;;;;;5061006;28;19970;-57
2021/09/05 12:22:50;;;;;;;;;;;21.10;70.70;;;;;;5053720;28;19922;-57
2021/09/05 12:25:17;;;;;;;;;;;21.10;70.70;;;;;;5064307;28;19912;-57
2021/09/05 12:28:12;;;;;;;;;;;21.10;70.70;;;;;;5055625;28;19912;-57
2021/09/05 12:30:57;;;;;;;;;;;21.10;70.70;;;;;;5059340;28;19966;-56
2021/09/05 12:33:25;;;;;;;;;;;21.10;70.70;;;;;;5046053;28;19977;-57
2021/09/05 12:35:52;;;;;;;;;;;21.10;70.70;;;;;;5066688;28;20061;-55
2021/09/05 12:38:27;;;;;;;;;;;21.10;70.70;;;;;;5057945;28;19916;-54
2021/09/05 12:40:52;;;;;;;;;;;21.10;70.70;;;;;;5061674;28;19913;-56
2021/09/05 12:43:25;;;;;;;;;;;21.10;70.80;;;;;;5058642;28;19920;-58
2021/09/05 12:45:51;;;;;;;;;;;21.10;70.80;;;;;;5041690;28;19916;-59
2021/09/05 12:48:17;;;;;;;;;;;21.10;70.70;;;;;;5055614;28;19978;-57
2021/09/05 12:50:43;;;;;;;;;;;21.10;70.80;;;;;;5060751;28;19978;-57
2021/09/05 12:53:12;;;;;;;;;;;21.10;70.80;;;;;;5055748;28;19999;-55
2021/09/05 12:55:37;;;;;;;;;;;21.10;70.90;;;;;;5054769;28;19920;-57
2021/09/05 12:58:03;;;;;;;;;;;21.10;70.90;;;;;;5050163;28;19924;-58
2021/09/05 13:00:29;;;;;;;;;;;21.10;70.90;;;;;;5068061;28;19922;-56
2021/09/05 13:02:54;;;;;;;;;;;21.10;70.90;;;;;;5042687;28;19912;-58
2021/09/05 13:05:19;;;;;;;;;;;21.10;71.00;;;;;;5073072;28;19916;-54
2021/09/05 13:07:45;;;;;;;;;;;21.10;71.00;;;;;;5054234;28;19913;-57
2021/09/05 13:10:10;;;;;;;;;;;21.10;70.90;;;;;;5068894;28;19943;-57
2021/09/05 13:12:36;;;;;;;;;;;21.10;70.90;;;;;;5051545;28;19916;-59
2021/09/05 13:15:01;;;;;;;;;;;21.10;71.00;;;;;;5068322;28;19921;-56
2021/09/05 13:17:27;;;;;;;;;;;21.10;71.10;;;;;;5050023;28;20552;-55
2021/09/05 13:19:52;;;;;;;;;;;21.00;71.10;;;;;;5061310;28;19912;-58
2021/09/05 13:22:18;;;;;;;;;;;21.10;71.30;;;;;;5050568;28;19964;-56
2021/09/05 13:24:43;;;;;;;;;;;21.00;71.10;;;;;;5059467;28;19913;-57
2021/09/05 13:27:08;;;;;;;;;;;21.10;71.20;;;;;;5063245;28;20483;-57
2021/09/05 13:29:34;;;;;;;;;;;21.10;71.20;;;;;;5059927;28;19966;-57
2021/09/05 13:31:59;;;;;;;;;;;21.10;71.20;;;;;;5063361;28;19913;-58
2021/09/05 13:34:25;;;;;;;;;;;21.00;71.20;;;;;;5049436;28;19916;-57
2021/09/05 13:36:50;;;;;;;;;;;21.10;71.30;;;;;;5054655;28;20331;-56
2021/09/05 13:39:17;;;;;;;;;;;21.10;71.30;;;;;;5057193;28;19923;-56
2021/09/05 13:41:43;;;;;;;;;;;21.10;71.30;;;;;;5062936;28;19912;-57
2021/09/05 13:44:08;;;;;;;;;;;21.10;71.30;;;;;;5056707;28;20286;-57
2021/09/05 13:46:34;;;;;;;;;;;21.10;71.30;;;;;;5062968;28;19923;-58
2021/09/05 13:48:59;;;;;;;;;;;21.10;71.30;;;;;;5061888;28;19912;-56
2021/09/05 13:51:24;;;;;;;;;;;21.10;71.40;;;;;;5061609;28;20324;-57
2021/09/05 13:53:51;;;;;;;;;;;21.10;71.90;;;;;;5059445;28;19912;-57
2021/09/05 13:56:17;;;;;;;;;;;21.10;71.40;;;;;;5054635;28;20409;-57
2021/09/05 13:58:42;;;;;;;;;;;21.00;71.50;;;;;;5052228;28;19923;-56
2021/09/05 14:01:07;;;;;;;;;;;21.10;71.50;;;;;;5060205;28;20265;-56
2021/09/05 14:03:33;;;;;;;;;;;21.10;71.60;;;;;;5060670;28;19930;-57
2021/09/05 14:05:58;;;;;;;;;;;21.10;71.60;;;;;;5054318;28;19935;-57
2021/09/05 14:08:24;;;;;;;;;;;21.10;71.50;;;;;;5058161;28;20160;-57
2021/09/05 14:10:49;;;;;;;;;;;21.10;71.50;;;;;;5067716;28;19920;-57
2021/09/05 14:13:15;;;;;;;;;;;21.10;71.50;;;;;;5049808;28;19967;-57